createdAt,value
2022-10-05T00:01:29.396Z,7.60
2022-10-05T00:04:15.607Z,11.40
2022-10-05T00:06:56.089Z,4.47
2022-10-05T00:09:32.507Z,4.25
2022-10-05T00:12:20.480Z,5.47
2022-10-05T00:14:56.987Z,7.30
2022-10-05T00:17:31.138Z,3.17
2022-10-05T00:20:17.534Z,12.43
2022-10-05T00:22:57.494Z,11.32
2022-10-05T00:25:30.032Z,6.57
2022-10-05T00:28:03.160Z,6.18
2022-10-05T00:30:36.132Z,9.32
2022-10-05T00:35:41.111Z,5.65
2022-10-05T00:38:13.627Z,6.63
2022-10-05T00:41:07.690Z,3.67
2022-10-05T00:44:11.916Z,4.32
2022-10-05T00:46:44.957Z,4.30
2022-10-05T00:49:25.597Z,7.93
2022-10-05T00:52:20.379Z,7.68
2022-10-05T00:55:17.428Z,6.80
2022-10-05T00:58:01.834Z,3.95
2022-10-05T01:00:40.999Z,7.60
2022-10-05T01:03:33.646Z,2.72
2022-10-05T01:06:24.767Z,11.83
2022-10-05T01:09:14.600Z,7.45
2022-10-05T01:12:02.045Z,7.35
2022-10-05T01:14:53.916Z,4.22
2022-10-05T01:17:57.206Z,5.70
2022-10-05T01:20:29.657Z,4.97
2022-10-05T01:23:35.435Z,6.82
2022-10-05T01:26:28.738Z,3.67
2022-10-05T01:29:32.920Z,4.60
2022-10-05T01:32:31.897Z,6.95
2022-10-05T01:35:31.317Z,6.70
2022-10-05T01:38:19.417Z,8.73
2022-10-05T01:41:00.789Z,4.05
2022-10-05T01:44:07.100Z,3.85
2022-10-05T01:46:46.548Z,4.25
2022-10-05T01:49:38.909Z,8.07
2022-10-05T01:52:56.599Z,5.70
2022-10-05T01:55:41.779Z,8.38
2022-10-05T01:58:20.457Z,11.07
2022-10-05T02:01:10.293Z,3.72
2022-10-05T02:04:29.578Z,3.42
2022-10-05T02:07:14.144Z,6.20
2022-10-05T02:09:52.617Z,5.55
2022-10-05T02:12:33.062Z,3.92
2022-10-05T02:15:17.522Z,6.13
2022-10-05T02:17:57.994Z,8.15
2022-10-05T02:20:34.877Z,5.03
2022-10-05T02:23:19.591Z,8.02
2022-10-05T02:25:54.251Z,7.03
2022-10-05T02:28:53.205Z,5.25
2022-10-05T02:31:31.735Z,5.15
2022-10-05T02:34:30.435Z,6.45
2022-10-05T02:37:30.456Z,5.53
2022-10-05T02:40:30.472Z,4.65
2022-10-05T02:43:19.731Z,4.95
2022-10-05T02:45:58.525Z,5.30
2022-10-05T02:49:12.681Z,6.03
2022-10-05T02:52:14.024Z,2.78
2022-10-05T02:54:49.728Z,9.95
2022-10-05T02:57:34.625Z,6.28
2022-10-05T03:00:17.645Z,7.47
2022-10-05T03:02:57.986Z,6.03
2022-10-05T03:05:44.060Z,5.30
2022-10-05T03:08:29.727Z,3.33
2022-10-05T03:11:30.168Z,7.10
2022-10-05T03:14:14.693Z,12.57
2022-10-05T03:16:54.107Z,6.70
2022-10-05T03:19:45.176Z,4.13
2022-10-05T03:22:48.351Z,6.60
2022-10-05T03:25:44.252Z,12.57
2022-10-05T03:28:40.948Z,5.65
2022-10-05T03:31:53.079Z,7.18
2022-10-05T03:34:39.793Z,11.10
2022-10-05T03:37:18.268Z,10.07
2022-10-05T03:40:31.283Z,7.32
2022-10-05T03:43:16.923Z,5.40
2022-10-05T03:46:14.412Z,2.65
2022-10-05T03:49:06.490Z,7.45
2022-10-05T03:51:51.608Z,3.58
2022-10-05T03:54:36.815Z,3.40
2022-10-05T03:57:26.365Z,5.10
2022-10-05T04:00:20.223Z,5.57
2022-10-05T04:02:58.516Z,4.55
2022-10-05T04:05:44.702Z,4.32
2022-10-05T04:08:43.032Z,5.75
2022-10-05T04:11:28.079Z,7.63
2022-10-05T04:14:10.643Z,5.35
2022-10-05T04:16:50.434Z,7.07
2022-10-05T04:20:01.032Z,4.85
2022-10-05T04:22:52.065Z,6.07
2022-10-05T04:25:48.237Z,10.45
2022-10-05T04:28:35.597Z,4.32
2022-10-05T04:31:16.243Z,5.30
2022-10-05T04:34:01.465Z,4.13
2022-10-05T04:36:45.126Z,3.83
2022-10-05T04:40:00.197Z,3.88
2022-10-05T04:42:56.733Z,6.95
2022-10-05T04:45:41.381Z,6.22
2022-10-05T04:48:35.273Z,4.97
2022-10-05T04:51:33.852Z,6.20
2022-10-05T04:54:21.531Z,9.07
2022-10-05T04:56:59.443Z,6.63
2022-10-05T05:00:00.828Z,10.73
2022-10-05T05:02:57.709Z,4.70
2022-10-05T05:06:18.396Z,6.63
2022-10-05T05:09:03.593Z,8.88
2022-10-05T05:12:08.435Z,9.60
2022-10-05T05:15:06.524Z,6.13
2022-10-05T05:17:42.534Z,7.53
2022-10-05T05:20:24.026Z,9.27
2022-10-05T05:22:59.365Z,7.47
2022-10-05T05:25:38.267Z,10.52
2022-10-05T05:28:19.361Z,12.27
2022-10-05T05:31:11.262Z,10.30
2022-10-05T05:34:03.365Z,6.80
2022-10-05T05:37:01.776Z,7.10
2022-10-05T05:39:47.128Z,4.68
2022-10-05T05:42:39.755Z,9.10
2022-10-05T05:45:24.104Z,6.97
2022-10-05T05:47:59.712Z,11.75
2022-10-05T05:50:35.286Z,10.27
2022-10-05T05:53:11.801Z,17.27
2022-10-05T05:56:09.151Z,24.45
2022-10-05T05:58:56.111Z,16.77
2022-10-05T06:01:59.882Z,17.55
2022-10-05T06:04:38.436Z,8.73
2022-10-05T06:07:18.383Z,7.65
2022-10-05T06:09:58.748Z,8.90
2022-10-05T06:12:49.903Z,4.85
2022-10-05T06:15:31.412Z,5.95
2022-10-05T06:18:11.344Z,8.65
2022-10-05T06:20:56.413Z,6.35
2022-10-05T06:23:46.299Z,7.28
2022-10-05T06:27:01.103Z,8.13
2022-10-05T06:30:07.743Z,7.95
2022-10-05T06:33:11.724Z,9.27
2022-10-05T06:36:08.346Z,8.43
2022-10-05T06:39:15.181Z,20.65
2022-10-05T06:42:00.059Z,8.15
2022-10-05T06:44:58.852Z,6.82
2022-10-05T06:48:07.795Z,6.55
2022-10-05T06:51:25.014Z,4.55
2022-10-05T06:54:55.243Z,5.13
2022-10-05T06:57:46.046Z,8.27
2022-10-05T07:00:22.459Z,5.63
2022-10-05T07:03:05.007Z,9.32
2022-10-05T07:05:47.398Z,11.05
2022-10-05T07:08:29.877Z,13.65
2022-10-05T07:11:05.301Z,4.28
2022-10-05T07:14:08.369Z,6.65
2022-10-05T07:16:56.021Z,10.52
2022-10-05T07:19:45.297Z,11.93
2022-10-05T07:22:39.298Z,6.57
2022-10-05T07:25:21.505Z,12.98
2022-10-05T07:28:26.658Z,7.85
2022-10-05T07:31:18.842Z,9.07
2022-10-05T07:34:07.105Z,5.53
2022-10-05T07:37:00.659Z,10.05
2022-10-05T07:40:00.229Z,7.93
2022-10-05T07:42:45.141Z,4.68
2022-10-05T07:45:48.138Z,8.57
2022-10-05T07:48:26.947Z,5.70
2022-10-05T07:51:28.708Z,8.45
2022-10-05T07:54:13.724Z,8.25
2022-10-05T07:56:52.811Z,12.30
2022-10-05T07:59:34.782Z,7.10
2022-10-05T08:02:34.146Z,6.25
2022-10-05T08:05:21.698Z,6.63
2022-10-05T08:08:19.599Z,5.80
2022-10-05T08:11:00.770Z,7.28
2022-10-05T08:14:11.278Z,10.75
2022-10-05T08:16:46.870Z,8.85
2022-10-05T08:19:47.699Z,7.07
2022-10-05T08:22:29.983Z,6.10
2022-10-05T08:25:35.092Z,6.10
2022-10-05T08:28:38.806Z,5.32
2022-10-05T08:31:19.179Z,6.35
2022-10-05T08:34:01.241Z,3.72
2022-10-05T08:37:02.803Z,9.55
2022-10-05T08:39:42.787Z,5.28
2022-10-05T08:42:44.463Z,3.42
2022-10-05T08:45:41.636Z,2.53
2022-10-05T08:48:48.980Z,4.00
2022-10-05T08:51:28.517Z,6.22
2022-10-05T08:54:03.803Z,4.13
2022-10-05T08:56:41.625Z,5.07
2022-10-05T08:59:41.283Z,8.05
2022-10-05T09:02:40.201Z,11.35
2022-10-05T09:05:31.200Z,6.07
2022-10-05T09:08:22.338Z,5.13
2022-10-05T09:11:00.265Z,6.03
2022-10-05T09:13:56.970Z,3.47
2022-10-05T09:16:38.286Z,4.03
2022-10-05T09:19:38.188Z,5.10
2022-10-05T09:22:54.449Z,6.25
2022-10-05T09:25:46.258Z,2.60
2022-10-05T09:28:25.736Z,3.65
2022-10-05T09:31:03.861Z,1.80
2022-10-05T09:33:39.317Z,1.92
2022-10-05T09:36:48.188Z,2.33
2022-10-05T09:40:03.127Z,3.88
2022-10-05T09:42:52.640Z,9.13
2022-10-05T09:45:31.548Z,3.50
2022-10-05T09:48:14.829Z,3.53
2022-10-05T09:51:18.318Z,6.50
2022-10-05T09:57:14.717Z,3.85
2022-10-05T10:03:28.495Z,4.07
2022-10-05T10:06:21.556Z,2.67
2022-10-05T10:09:19.919Z,4.57
2022-10-05T10:12:15.236Z,3.72
2022-10-05T10:15:13.631Z,1.75
2022-10-05T10:18:13.755Z,3.90
2022-10-05T10:20:54.894Z,2.70
2022-10-05T10:23:48.299Z,5.18
2022-10-05T10:27:00.313Z,7.00
2022-10-05T10:30:03.765Z,3.35
2022-10-05T10:35:14.364Z,2.97
2022-10-05T10:38:02.873Z,2.97
2022-10-05T10:40:43.236Z,2.90
2022-10-05T10:43:18.487Z,1.88
2022-10-05T10:46:09.264Z,2.67
2022-10-05T10:49:14.252Z,1.73
2022-10-05T10:51:49.627Z,5.68
2022-10-05T10:54:28.299Z,10.63
2022-10-05T10:57:40.259Z,1.17
2022-10-05T11:00:15.827Z,2.97
2022-10-05T11:03:14.140Z,2.08
2022-10-05T11:06:00.629Z,3.30
2022-10-05T11:08:58.565Z,3.88
2022-10-05T11:11:52.445Z,2.75
2022-10-05T11:14:49.701Z,3.83
2022-10-05T11:17:52.527Z,4.28
2022-10-05T11:20:32.753Z,1.70
2022-10-05T11:23:26.878Z,2.63
2022-10-05T11:26:20.730Z,4.05
2022-10-05T11:29:23.608Z,1.80
2022-10-05T11:32:26.800Z,4.70
2022-10-05T11:35:43.144Z,2.78
2022-10-05T11:38:57.362Z,2.78
2022-10-05T11:41:54.548Z,5.93
2022-10-05T11:44:54.889Z,4.50
2022-10-05T11:47:40.712Z,3.50
2022-10-05T11:50:27.507Z,4.28
2022-10-05T11:53:14.344Z,3.20
2022-10-05T11:56:02.276Z,3.17
2022-10-05T11:58:41.535Z,2.80
2022-10-05T12:01:45.973Z,1.45
2022-10-05T12:04:25.416Z,3.30
2022-10-05T12:07:24.359Z,6.07
2022-10-05T12:10:35.048Z,1.90
2022-10-05T12:13:30.283Z,4.60
2022-10-05T12:16:29.496Z,5.03
2022-10-05T12:19:13.932Z,2.17
2022-10-05T12:22:06.979Z,2.65
2022-10-05T12:24:39.443Z,2.85
2022-10-05T12:27:22.783Z,7.07
2022-10-05T12:30:12.027Z,3.00
2022-10-05T12:33:17.611Z,3.97
2022-10-05T12:36:07.803Z,2.47
2022-10-05T12:38:58.370Z,3.35
2022-10-05T12:41:47.984Z,7.03
2022-10-05T12:45:05.759Z,4.82
2022-10-05T12:47:53.617Z,2.75
2022-10-05T12:50:38.446Z,6.55
2022-10-05T12:53:35.184Z,5.55
2022-10-05T12:56:28.593Z,3.35
2022-10-05T13:02:12.147Z,4.28
2022-10-05T13:04:51.326Z,3.95
2022-10-05T13:07:52.686Z,5.30
2022-10-05T13:10:36.396Z,2.78
2022-10-05T13:13:46.008Z,2.95
2022-10-05T13:16:56.743Z,3.75
2022-10-05T13:19:40.308Z,4.28
2022-10-05T13:22:30.711Z,2.47
2022-10-05T13:25:17.583Z,4.38
2022-10-05T13:28:22.090Z,2.83
2022-10-05T13:31:03.306Z,4.00
2022-10-05T13:34:09.891Z,4.22
2022-10-05T13:37:00.657Z,1.73
2022-10-05T13:39:49.319Z,1.73
2022-10-05T13:43:04.255Z,1.95
2022-10-05T13:45:49.280Z,4.57
2022-10-05T13:48:50.042Z,10.20
2022-10-05T13:51:26.478Z,12.75
2022-10-05T13:54:13.178Z,9.80
2022-10-05T13:56:53.162Z,2.35
2022-10-05T13:59:54.276Z,4.82
2022-10-05T14:02:38.580Z,5.35
2022-10-05T14:05:19.417Z,8.23
2022-10-05T14:07:55.153Z,3.65
2022-10-05T14:10:39.804Z,4.25
2022-10-05T14:13:29.175Z,3.75
2022-10-05T14:16:13.519Z,5.43
2022-10-05T14:19:05.821Z,3.95
2022-10-05T14:21:59.587Z,2.75
2022-10-05T14:24:44.730Z,1.90
2022-10-05T14:27:27.272Z,1.83
2022-10-05T14:30:17.429Z,3.33
2022-10-05T14:32:59.397Z,2.03
2022-10-05T14:35:49.770Z,3.72
2022-10-05T14:38:31.894Z,2.20
2022-10-05T14:41:08.730Z,1.27
2022-10-05T14:43:51.035Z,7.60
2022-10-05T14:46:29.575Z,1.53
2022-10-05T14:49:22.589Z,2.88
2022-10-05T14:51:56.772Z,2.92
2022-10-05T14:54:59.493Z,8.27
2022-10-05T14:57:41.823Z,7.70
2022-10-05T15:00:18.914Z,8.37
2022-10-05T15:03:29.515Z,2.28
2022-10-05T15:06:04.012Z,3.78
2022-10-05T15:08:53.084Z,4.47
2022-10-05T15:11:43.044Z,3.85
2022-10-05T15:14:41.251Z,5.93
2022-10-05T15:17:54.702Z,2.88
2022-10-05T15:20:44.692Z,2.88
2022-10-05T15:24:28.250Z,4.78
2022-10-05T15:27:04.773Z,4.75
2022-10-05T15:29:52.446Z,2.80
2022-10-05T15:32:42.275Z,3.53
2022-10-05T15:35:29.977Z,6.18
2022-10-05T15:38:11.548Z,1.55
2022-10-05T15:41:07.137Z,3.95
2022-10-05T15:44:07.483Z,3.75
2022-10-05T15:47:19.277Z,3.10
2022-10-05T15:50:02.387Z,1.92
2022-10-05T15:52:52.526Z,5.35
2022-10-05T15:55:41.912Z,5.18
2022-10-05T15:58:20.991Z,3.60
2022-10-05T16:01:35.713Z,6.55
2022-10-05T16:04:19.319Z,1.92
2022-10-05T16:07:17.911Z,1.80
2022-10-05T16:10:16.311Z,1.92
2022-10-05T16:13:05.175Z,2.90
2022-10-05T16:15:50.938Z,4.80
2022-10-05T16:18:47.943Z,7.88
2022-10-05T16:21:36.691Z,4.13
2022-10-05T16:24:25.140Z,3.80
2022-10-05T16:27:01.148Z,5.63
2022-10-05T16:29:53.558Z,3.60
2022-10-05T16:32:51.131Z,3.42
2022-10-05T16:35:47.913Z,3.83
2022-10-05T16:38:34.254Z,5.68
2022-10-05T16:41:33.975Z,4.78
2022-10-05T16:44:34.753Z,4.18
2022-10-05T16:47:28.655Z,2.30
2022-10-05T16:50:05.012Z,7.38
2022-10-05T16:52:40.466Z,7.95
2022-10-05T16:55:20.354Z,2.95
2022-10-05T16:57:57.051Z,2.22
2022-10-05T17:01:09.848Z,2.10
2022-10-05T17:04:13.482Z,4.18
2022-10-05T17:07:17.297Z,1.65
2022-10-05T17:09:49.773Z,3.75
2022-10-05T17:12:29.559Z,4.95
2022-10-05T17:15:18.158Z,2.63
2022-10-05T17:18:24.019Z,2.85
2022-10-05T17:21:14.306Z,2.92
2022-10-05T17:23:53.909Z,2.45
2022-10-05T17:26:34.043Z,4.93
2022-10-05T17:29:26.749Z,5.63
2022-10-05T17:32:19.441Z,2.53
2022-10-05T17:35:00.835Z,2.17
2022-10-05T17:37:42.721Z,5.97
2022-10-05T17:40:32.131Z,3.50
2022-10-05T17:43:34.147Z,3.38
2022-10-05T17:46:10.840Z,8.50
2022-10-05T17:48:49.544Z,7.80
2022-10-05T17:51:49.444Z,3.67
2022-10-05T17:54:49.132Z,5.03
2022-10-05T17:57:28.129Z,6.55
2022-10-05T18:00:02.892Z,1.98
2022-10-05T18:02:40.303Z,10.93
2022-10-05T18:05:17.501Z,3.85
2022-10-05T18:08:16.786Z,3.78
2022-10-05T18:11:10.425Z,3.45
2022-10-05T18:13:50.351Z,5.38
2022-10-05T18:17:02.455Z,8.20
2022-10-05T18:19:37.023Z,4.28
2022-10-05T18:22:15.744Z,5.30
2022-10-05T18:25:21.786Z,4.45
2022-10-05T18:28:02.718Z,11.65
2022-10-05T18:30:58.779Z,9.30
2022-10-05T18:33:34.488Z,4.18
2022-10-05T18:36:14.662Z,4.82
2022-10-05T18:39:02.004Z,7.10
2022-10-05T18:42:11.924Z,7.53
2022-10-05T18:44:53.259Z,3.90
2022-10-05T18:47:46.620Z,4.78
2022-10-05T18:50:47.878Z,6.68
2022-10-05T18:53:41.950Z,8.32
2022-10-05T18:56:30.415Z,9.98
2022-10-05T18:59:41.764Z,10.10
2022-10-05T19:02:46.222Z,15.38
2022-10-05T19:05:53.181Z,14.23
2022-10-05T19:08:50.512Z,17.52
2022-10-05T19:11:43.793Z,18.15
2022-10-05T19:14:22.945Z,14.27
2022-10-05T19:17:15.781Z,18.77
2022-10-05T19:20:09.105Z,14.77
2022-10-05T19:23:09.622Z,12.25
2022-10-05T19:26:00.051Z,15.52
2022-10-05T19:28:57.067Z,18.73
2022-10-05T19:31:58.514Z,21.75
2022-10-05T19:35:06.372Z,20.23
2022-10-05T19:37:49.591Z,13.38
2022-10-05T19:43:24.381Z,10.82
2022-10-05T19:46:20.821Z,14.07
2022-10-05T19:52:00.807Z,8.60
2022-10-05T19:54:33.699Z,9.60
2022-10-05T19:57:22.012Z,9.07
2022-10-05T20:00:02.686Z,14.07
2022-10-05T20:02:41.798Z,11.43
2022-10-05T20:05:17.859Z,8.27
2022-10-05T20:07:58.928Z,8.90
2022-10-05T20:10:35.979Z,7.40
2022-10-05T20:13:36.766Z,7.30
2022-10-05T20:16:38.350Z,9.55
2022-10-05T20:20:00.660Z,9.93
2022-10-05T20:22:34.825Z,12.35
2022-10-05T20:25:25.739Z,9.52
2022-10-05T20:27:58.746Z,13.57
2022-10-05T20:33:10.647Z,11.50
2022-10-05T20:35:47.193Z,9.63
2022-10-05T20:38:23.730Z,7.60
2022-10-05T20:40:56.330Z,10.15
2022-10-05T20:43:29.574Z,8.18
2022-10-05T20:46:02.808Z,9.73
2022-10-05T20:48:48.646Z,13.05
2022-10-05T20:51:33.716Z,5.88
2022-10-05T20:54:10.019Z,5.95
2022-10-05T20:56:42.824Z,4.93
2022-10-05T20:59:15.737Z,6.28
2022-10-05T21:04:26.367Z,6.22
2022-10-05T21:06:58.855Z,8.57
2022-10-05T21:09:31.840Z,8.25
2022-10-05T21:14:38.204Z,12.75
2022-10-05T21:17:12.190Z,8.15
2022-10-05T21:19:45.236Z,6.97
2022-10-05T21:24:50.109Z,6.20
2022-10-05T21:27:22.569Z,3.78
2022-10-05T21:29:55.072Z,8.60
2022-10-05T21:32:27.500Z,5.93
2022-10-05T21:35:00.136Z,6.35
2022-10-05T21:37:32.675Z,6.93
2022-10-05T21:40:05.507Z,6.43
2022-10-05T21:42:38.346Z,6.65
2022-10-05T21:47:43.377Z,8.02
2022-10-05T21:50:16.308Z,7.07
2022-10-05T21:55:22.966Z,4.03
2022-10-05T21:57:57.396Z,5.47
2022-10-05T22:00:30.542Z,7.22
2022-10-05T22:03:03.152Z,3.53
2022-10-05T22:05:36.001Z,6.68
2022-10-05T22:08:22.905Z,5.07
2022-10-05T22:10:55.769Z,6.15
2022-10-05T22:16:12.893Z,9.48
2022-10-05T22:18:46.052Z,4.78
2022-10-05T22:21:21.260Z,6.63
2022-10-05T22:23:53.811Z,3.65
2022-10-05T22:26:27.178Z,4.97
2022-10-05T22:29:01.096Z,4.15
2022-10-05T22:31:33.799Z,4.63
2022-10-05T22:34:06.456Z,10.88
2022-10-05T22:36:38.979Z,6.70
2022-10-05T22:39:11.444Z,18.55
2022-10-05T22:41:44.712Z,8.75
2022-10-05T22:44:17.249Z,3.65
2022-10-05T22:46:49.890Z,5.07
2022-10-05T22:49:22.441Z,5.57
2022-10-05T22:51:55.224Z,5.85
2022-10-05T22:54:30.523Z,3.75
2022-10-05T22:57:04.390Z,7.55
2022-10-05T22:59:37.130Z,5.57
2022-10-05T23:02:10.092Z,9.65
2022-10-05T23:07:14.955Z,2.83
2022-10-05T23:09:47.526Z,2.08
2022-10-05T23:12:20.006Z,7.43
2022-10-05T23:14:52.608Z,4.05
2022-10-05T23:17:25.166Z,4.22
2022-10-05T23:19:58.238Z,3.72
2022-10-05T23:22:30.747Z,1.85
2022-10-05T23:25:04.089Z,4.85
2022-10-05T23:27:41.409Z,6.55
2022-10-05T23:30:14.045Z,5.50
2022-10-05T23:32:46.660Z,5.28
2022-10-05T23:35:19.308Z,3.75
2022-10-05T23:37:51.885Z,1.63
2022-10-05T23:40:24.460Z,5.45
2022-10-05T23:42:57.049Z,3.10
2022-10-05T23:45:29.646Z,2.38
2022-10-05T23:48:02.319Z,2.45
2022-10-05T23:50:34.847Z,4.80
2022-10-05T23:53:07.780Z,3.40
2022-10-05T23:58:12.899Z,3.92
